createdAt,value
2023-05-05T00:00:14.678Z,15.7230
2023-05-05T00:01:15.491Z,15.6403
2023-05-05T00:02:15.875Z,15.6166
2023-05-05T00:03:17.739Z,15.6100
2023-05-05T00:04:22.483Z,15.6251
2023-05-05T00:05:24.980Z,15.5828
2023-05-05T00:06:25.517Z,15.5863
2023-05-05T00:07:27.448Z,15.6946
2023-05-05T00:08:29.352Z,15.7286
2023-05-05T00:09:30.363Z,15.4276
2023-05-05T00:10:32.255Z,15.4215
2023-05-05T00:11:34.424Z,15.2980
2023-05-05T00:12:35.502Z,15.2488
2023-05-05T00:13:36.265Z,15.2389
2023-05-05T00:14:37.172Z,15.2087
2023-05-05T00:15:38.746Z,15.2346
2023-05-05T00:16:39.243Z,15.2149
2023-05-05T00:17:40.766Z,15.2132
2023-05-05T00:18:41.986Z,15.2051
2023-05-05T00:19:43.451Z,15.2307
2023-05-05T00:20:44.544Z,15.2506
2023-05-05T00:21:46.328Z,15.2692
2023-05-05T00:22:48.255Z,15.3376
2023-05-05T00:23:51.579Z,15.3576
2023-05-05T00:24:53.664Z,15.3129
2023-05-05T00:25:55.368Z,15.2848
2023-05-05T00:26:57.407Z,15.2678
2023-05-05T00:27:57.483Z,15.2515
2023-05-05T00:28:59.433Z,15.2443
2023-05-05T00:30:32.665Z,15.2498
2023-05-05T00:31:34.034Z,15.2541
2023-05-05T00:32:37.742Z,15.2346
2023-05-05T00:33:40.119Z,15.2002
2023-05-05T00:34:42.763Z,15.2004
2023-05-05T00:35:42.996Z,15.2035
2023-05-05T00:36:43.274Z,15.1951
2023-05-05T00:38:12.497Z,15.2121
2023-05-05T00:39:14.178Z,15.2209
2023-05-05T00:40:16.615Z,15.1794
2023-05-05T00:41:19.935Z,15.2439
2023-05-05T00:42:22.370Z,15.2634
2023-05-05T00:43:23.583Z,15.2792
2023-05-05T00:44:26.355Z,15.2764
2023-05-05T00:45:29.473Z,15.2032
2023-05-05T00:46:30.708Z,15.1538
2023-05-05T00:47:33.107Z,15.1421
2023-05-05T00:48:33.198Z,15.1869
2023-05-05T00:49:35.443Z,15.1967
2023-05-05T00:50:42.045Z,15.1780
2023-05-05T00:52:08.716Z,15.1346
2023-05-05T00:53:10.974Z,15.1535
2023-05-05T00:54:12.310Z,15.1778
2023-05-05T00:55:13.588Z,15.1787
2023-05-05T00:56:17.350Z,15.1830
2023-05-05T00:57:19.393Z,15.1702
2023-05-05T00:58:19.453Z,15.1564
2023-05-05T00:59:20.268Z,15.1356
2023-05-05T01:00:21.944Z,15.1192
2023-05-05T01:01:24.651Z,15.0534
2023-05-05T01:02:28.001Z,14.9881
2023-05-05T01:03:28.755Z,14.9638
2023-05-05T01:04:30.089Z,14.9601
2023-05-05T01:05:30.926Z,14.9699
2023-05-05T01:06:34.543Z,15.0245
2023-05-05T01:07:34.890Z,15.0132
2023-05-05T01:08:35.039Z,14.9855
2023-05-05T01:09:38.147Z,15.0019
2023-05-05T01:10:42.212Z,15.1584
2023-05-05T01:11:43.168Z,15.2263
2023-05-05T01:13:11.143Z,15.4400
2023-05-05T01:14:12.955Z,15.5038
2023-05-05T01:15:15.632Z,15.4513
2023-05-05T01:16:18.112Z,15.4014
2023-05-05T01:17:18.522Z,15.2722
2023-05-05T01:18:20.757Z,15.1627
2023-05-05T01:19:25.623Z,14.9426
2023-05-05T01:20:26.397Z,14.8952
2023-05-05T01:21:56.491Z,14.7080
2023-05-05T01:23:00.234Z,14.6318
2023-05-05T01:24:00.367Z,14.5788
2023-05-05T01:25:06.568Z,14.5708
2023-05-05T01:26:34.074Z,14.5813
2023-05-05T01:27:34.865Z,14.5951
2023-05-05T01:29:03.446Z,14.6035
2023-05-05T01:30:04.112Z,14.5747
2023-05-05T01:31:36.359Z,14.4432
2023-05-05T01:32:39.685Z,14.3917
2023-05-05T01:33:40.570Z,14.4059
2023-05-05T01:34:44.403Z,14.4509
2023-05-05T01:35:45.418Z,14.4251
2023-05-05T01:36:47.985Z,14.4211
2023-05-05T01:37:49.420Z,14.4453
2023-05-05T01:38:51.324Z,14.4799
2023-05-05T01:39:51.483Z,14.4701
2023-05-05T01:40:54.155Z,14.4886
2023-05-05T01:41:56.983Z,14.5291
2023-05-05T01:43:02.595Z,14.5210
2023-05-05T01:44:02.643Z,14.5130
2023-05-05T01:45:07.910Z,14.4893
2023-05-05T01:46:10.028Z,14.5113
2023-05-05T01:47:11.455Z,14.5323
2023-05-05T01:48:15.264Z,14.4725
2023-05-05T01:49:18.956Z,14.4005
2023-05-05T01:50:20.679Z,14.3874
2023-05-05T01:51:22.327Z,14.3784
2023-05-05T01:52:25.608Z,14.4425
2023-05-05T01:53:27.620Z,14.5163
2023-05-05T01:54:27.552Z,14.5533
2023-05-05T01:55:32.077Z,14.4772
2023-05-05T01:56:35.757Z,14.4274
2023-05-05T01:57:37.865Z,14.4213
2023-05-05T01:58:41.171Z,14.4394
2023-05-05T01:59:43.315Z,14.4686
2023-05-05T02:00:43.462Z,14.4686
2023-05-05T02:02:47.074Z,14.4084
2023-05-05T02:03:49.055Z,14.2691
2023-05-05T02:04:49.165Z,14.2486
2023-05-05T02:05:49.549Z,14.2243
2023-05-05T02:06:53.282Z,14.1819
2023-05-05T02:07:55.527Z,14.1224
2023-05-05T02:08:57.776Z,14.1787
2023-05-05T02:10:01.537Z,14.2184
2023-05-05T02:11:04.083Z,14.2304
2023-05-05T02:12:32.065Z,14.3852
2023-05-05T02:14:04.586Z,14.5624
2023-05-05T02:15:09.588Z,14.6008
2023-05-05T02:16:12.965Z,14.7416
2023-05-05T02:18:42.461Z,15.1249
2023-05-05T02:19:46.302Z,15.1228
2023-05-05T02:20:48.573Z,15.1701
2023-05-05T02:21:49.223Z,15.1265
2023-05-05T02:22:49.663Z,14.9653
2023-05-05T02:23:52.802Z,14.8218
2023-05-05T02:24:55.034Z,14.7166
2023-05-05T02:26:25.029Z,14.7039
2023-05-05T02:27:29.549Z,14.8116
2023-05-05T02:28:33.254Z,14.7498
2023-05-05T02:29:37.895Z,14.5808
2023-05-05T02:30:43.458Z,14.4536
2023-05-05T02:31:43.683Z,14.3413
2023-05-05T02:32:44.567Z,14.2823
2023-05-05T02:33:48.234Z,14.1971
2023-05-05T02:34:51.342Z,14.1151
2023-05-05T02:36:50.613Z,14.0422
2023-05-05T02:37:51.016Z,13.9977
2023-05-05T02:38:52.916Z,13.9738
2023-05-05T02:39:53.936Z,13.9797
2023-05-05T02:40:54.867Z,13.9720
2023-05-05T02:46:02.058Z,13.9189
2023-05-05T02:49:06.756Z,13.9005
2023-05-05T02:50:08.566Z,13.8760
2023-05-05T02:51:12.904Z,13.8738
2023-05-05T02:52:15.277Z,13.8720
2023-05-05T03:02:07.785Z,13.8920
2023-05-05T03:03:08.889Z,13.9159
2023-05-05T03:04:13.011Z,13.9713
2023-05-05T03:05:16.714Z,13.9909
2023-05-05T03:06:20.266Z,13.9874
2023-05-05T03:07:22.619Z,13.9942
2023-05-05T03:08:24.480Z,13.9956
2023-05-05T03:09:25.530Z,13.9958
2023-05-05T03:10:28.386Z,13.9384
2023-05-05T03:11:29.235Z,13.9237
2023-05-05T03:12:30.339Z,13.9247
2023-05-05T03:13:34.710Z,13.9034
2023-05-05T03:14:37.128Z,13.8952
2023-05-05T03:15:38.874Z,13.8802
2023-05-05T03:16:40.006Z,13.9140
2023-05-05T03:17:42.154Z,13.9516
2023-05-05T03:18:47.136Z,13.9054
2023-05-05T03:19:50.435Z,13.9099
2023-05-05T03:20:54.680Z,13.8983
2023-05-05T03:21:56.882Z,13.8539
2023-05-05T03:23:02.668Z,13.8300
2023-05-05T03:24:31.082Z,13.8151
2023-05-05T03:25:32.343Z,13.8177
2023-05-05T03:26:36.038Z,13.8117
2023-05-05T03:27:36.417Z,13.8210
2023-05-05T03:30:41.160Z,13.9907
2023-05-05T03:31:44.547Z,14.1164
2023-05-05T03:32:46.808Z,14.2267
2023-05-05T03:33:47.507Z,14.2619
2023-05-05T03:46:46.671Z,14.3706
2023-05-05T03:47:47.355Z,14.3988
2023-05-05T03:52:51.919Z,14.5581
2023-05-05T03:53:52.531Z,14.5785
2023-05-05T03:55:19.478Z,14.6627
2023-05-05T03:56:22.063Z,14.6664
2023-05-05T03:57:26.280Z,14.6450
2023-05-05T03:58:31.923Z,14.5816
2023-05-05T03:59:32.378Z,14.5324
2023-05-05T04:30:21.609Z,13.9081
2023-05-05T04:31:26.619Z,13.9342
2023-05-05T04:40:49.442Z,14.0923
2023-05-05T04:41:57.088Z,14.0882
2023-05-05T04:43:00.515Z,14.0788
2023-05-05T04:44:11.359Z,14.0661
2023-05-05T04:52:47.827Z,13.8671
2023-05-05T04:53:49.691Z,13.8173
2023-05-05T04:54:52.635Z,13.7953
2023-05-05T04:55:56.772Z,13.7974
2023-05-05T05:01:58.255Z,13.7906
2023-05-05T05:03:00.106Z,13.8701
2023-05-05T05:08:26.469Z,14.2134
2023-05-05T05:13:29.089Z,13.8497
2023-05-05T05:14:32.892Z,13.7928
2023-05-05T05:15:36.648Z,13.7695
2023-05-05T05:16:38.199Z,13.7306
2023-05-05T05:17:40.378Z,13.6973
2023-05-05T05:18:40.687Z,13.6705
2023-05-05T05:19:40.856Z,13.6628
2023-05-05T05:43:12.515Z,14.0453
2023-05-05T05:44:14.743Z,14.0549
2023-05-05T05:45:17.119Z,14.0997
2023-05-05T05:46:17.497Z,14.1354
2023-05-05T05:59:18.911Z,14.6234
2023-05-05T06:00:19.585Z,14.6527
2023-05-05T06:01:20.829Z,14.6644
2023-05-05T06:02:25.867Z,14.6708
2023-05-05T06:03:29.459Z,14.7120
2023-05-05T06:08:41.185Z,14.8776
2023-05-05T06:09:43.203Z,14.8863
2023-05-05T06:10:43.675Z,14.9339
2023-05-05T06:11:44.547Z,14.9766
2023-05-05T06:13:14.133Z,14.9700
2023-05-05T06:14:19.554Z,15.0222
2023-05-05T06:15:22.456Z,15.0854
2023-05-05T06:30:50.592Z,15.8942
2023-05-05T06:32:24.119Z,15.9580
2023-05-05T06:33:51.925Z,16.0349
2023-05-05T06:34:54.029Z,16.0330
2023-05-05T06:35:56.823Z,15.9657
2023-05-05T06:37:56.113Z,16.0565
2023-05-05T06:45:09.329Z,16.3380
2023-05-05T06:46:37.395Z,16.4860
2023-05-05T06:48:08.062Z,16.4675
2023-05-05T06:49:10.626Z,16.5698
2023-05-05T06:50:38.626Z,16.4180
2023-05-05T06:51:42.163Z,16.3545
2023-05-05T06:53:10.485Z,16.4738
2023-05-05T06:54:43.764Z,16.6349
2023-05-05T06:56:12.162Z,16.7396
2023-05-05T06:57:40.951Z,16.7093
2023-05-05T06:59:09.775Z,16.7487
2023-05-05T07:00:40.691Z,16.7788
2023-05-05T07:02:09.397Z,16.8700
2023-05-05T07:03:40.899Z,17.0122
2023-05-05T07:04:44.186Z,17.0376
2023-05-05T07:06:14.391Z,16.9946
2023-05-05T07:07:43.707Z,17.0712
2023-05-05T07:09:16.936Z,17.1223
2023-05-05T07:10:16.194Z,17.2018
2023-05-05T07:11:49.168Z,17.3164
2023-05-05T07:13:49.577Z,17.6116
2023-05-05T07:15:27.450Z,17.6184
2023-05-05T07:16:50.100Z,17.6652
2023-05-05T07:18:21.387Z,17.9015
2023-05-05T07:19:51.716Z,17.9898
2023-05-05T07:21:20.609Z,18.2609
2023-05-05T07:22:22.208Z,18.0831
2023-05-05T07:23:52.170Z,17.9480
2023-05-05T07:25:20.991Z,18.0268
2023-05-05T07:26:52.377Z,18.2645
2023-05-05T07:28:23.114Z,18.2690
2023-05-05T07:29:53.768Z,18.2314
2023-05-05T07:30:54.699Z,18.2271
2023-05-05T07:32:25.050Z,18.3345
2023-05-05T07:33:56.993Z,17.8744
2023-05-05T07:35:28.670Z,18.0158
2023-05-05T07:36:57.888Z,17.9377
2023-05-05T07:38:27.904Z,18.0240
2023-05-05T07:39:58.330Z,17.9201
2023-05-05T07:41:27.350Z,17.9160
2023-05-05T07:42:58.305Z,17.8604
2023-05-05T07:45:29.334Z,17.9528
2023-05-05T07:47:01.783Z,17.8556
2023-05-05T07:48:32.285Z,17.9418
2023-05-05T07:50:03.439Z,17.9195
2023-05-05T07:51:34.979Z,18.0082
2023-05-05T07:53:13.610Z,17.9708
2023-05-05T07:54:05.902Z,18.0204
2023-05-05T07:55:37.676Z,17.9754
2023-05-05T07:57:07.778Z,17.8839
2023-05-05T07:58:38.936Z,17.8877
2023-05-05T08:00:11.124Z,17.9756
2023-05-05T08:01:42.421Z,17.8896
2023-05-05T08:03:12.877Z,17.9290
2023-05-05T08:04:45.087Z,18.1734
2023-05-05T08:06:15.460Z,18.2409
2023-05-05T08:07:47.331Z,18.1353
2023-05-05T08:09:16.331Z,18.1052
2023-05-05T08:10:47.712Z,18.1319
2023-05-05T08:12:16.546Z,18.1446
2023-05-05T08:13:46.209Z,18.1613
2023-05-05T08:15:17.490Z,18.0459
2023-05-05T08:16:49.284Z,17.9818
2023-05-05T08:18:19.998Z,18.1033
2023-05-05T08:19:48.948Z,18.2310
2023-05-05T08:21:51.800Z,18.2990
2023-05-05T08:24:56.024Z,18.5231
2023-05-05T08:26:57.656Z,18.4340
2023-05-05T08:28:29.185Z,18.4112
2023-05-05T08:30:01.280Z,18.4532
2023-05-05T08:31:31.043Z,18.4358
2023-05-05T08:33:03.589Z,18.5857
2023-05-05T08:34:33.428Z,18.7463
2023-05-05T08:35:35.175Z,18.7679
2023-05-05T08:37:05.644Z,18.6992
2023-05-05T08:38:36.044Z,18.7648
2023-05-05T08:40:08.924Z,18.9669
2023-05-05T08:41:39.195Z,18.7266
2023-05-05T08:42:39.831Z,18.7166
2023-05-05T08:43:42.950Z,18.7504
2023-05-05T08:45:14.354Z,19.0236
2023-05-05T08:46:44.922Z,19.0879
2023-05-05T08:48:13.834Z,19.0640
2023-05-05T08:49:43.608Z,19.1748
2023-05-05T08:51:16.097Z,19.0704
2023-05-05T08:52:48.087Z,19.4019
2023-05-05T08:54:17.779Z,19.2401
2023-05-05T08:55:48.403Z,19.3741
2023-05-05T08:57:19.403Z,19.1182
2023-05-05T08:58:50.687Z,19.2042
2023-05-05T09:00:19.953Z,19.2687
2023-05-05T09:01:50.721Z,19.3577
2023-05-05T09:03:22.084Z,19.3221
2023-05-05T09:04:51.920Z,19.5080
2023-05-05T09:06:21.676Z,19.3839
2023-05-05T09:07:52.273Z,19.1075
2023-05-05T09:09:22.030Z,19.2610
2023-05-05T09:10:51.812Z,19.2496
2023-05-05T09:12:22.142Z,19.5021
2023-05-05T09:13:53.407Z,19.4804
2023-05-05T09:15:24.785Z,19.0652
2023-05-05T09:16:56.072Z,19.4457
2023-05-05T09:18:26.262Z,19.6441
2023-05-05T09:19:56.070Z,19.7390
2023-05-05T09:21:26.799Z,19.6271
2023-05-05T09:22:58.260Z,19.7553
2023-05-05T09:24:30.257Z,19.5123
2023-05-05T09:26:00.717Z,19.2601
2023-05-05T09:27:30.723Z,19.5988
2023-05-05T09:29:00.974Z,19.7685
2023-05-05T09:30:32.265Z,19.7657
2023-05-05T09:32:03.088Z,19.7350
2023-05-05T09:33:34.693Z,19.6200
2023-05-05T09:35:05.033Z,19.4930
2023-05-05T09:36:34.348Z,19.6475
2023-05-05T09:38:05.907Z,19.9273
2023-05-05T09:39:36.726Z,19.8372
2023-05-05T09:41:08.268Z,19.7699
2023-05-05T09:42:38.889Z,19.6754
2023-05-05T09:44:09.669Z,20.0519
2023-05-05T09:45:41.366Z,20.0580
2023-05-05T09:47:25.981Z,20.0596
2023-05-05T09:48:43.423Z,20.2747
2023-05-05T09:50:13.764Z,20.0882
2023-05-05T09:51:43.831Z,20.0982
2023-05-05T09:53:13.168Z,20.3200
2023-05-05T09:54:43.516Z,20.2287
2023-05-05T09:56:12.844Z,20.4449
2023-05-05T09:57:43.147Z,20.4564
2023-05-05T09:59:12.901Z,20.3725
2023-05-05T10:00:43.253Z,20.6230
2023-05-05T10:02:13.606Z,20.9509
2023-05-05T10:03:43.985Z,20.5468
2023-05-05T10:05:14.364Z,20.1381
2023-05-05T10:06:43.515Z,20.3695
2023-05-05T10:08:13.875Z,20.8055
2023-05-05T10:09:44.171Z,20.6919
2023-05-05T10:11:13.474Z,20.9730
2023-05-05T10:12:43.782Z,20.9604
2023-05-05T10:14:14.535Z,21.0371
2023-05-05T10:15:45.852Z,20.9359
2023-05-05T10:17:16.265Z,20.5597
2023-05-05T10:18:45.535Z,20.6083
2023-05-05T10:20:14.799Z,20.6653
2023-05-05T10:21:44.065Z,20.9304
2023-05-05T10:23:13.894Z,20.9961
2023-05-05T10:24:45.407Z,20.7769
2023-05-05T10:26:15.219Z,21.1994
2023-05-05T10:27:44.875Z,21.1050
2023-05-05T10:29:15.626Z,21.3976
2023-05-05T10:30:45.004Z,21.3479
2023-05-05T10:32:40.798Z,21.5848
2023-05-05T10:33:45.074Z,21.5200
2023-05-05T10:35:14.710Z,21.3813
2023-05-05T10:36:44.993Z,21.2826
2023-05-05T10:38:15.724Z,21.2583
2023-05-05T10:39:45.027Z,21.3034
2023-05-05T10:41:14.360Z,21.3130
2023-05-05T10:42:43.745Z,21.0639
2023-05-05T10:44:12.945Z,20.8754
2023-05-05T10:45:43.588Z,20.7620
2023-05-05T10:47:14.247Z,20.8663
2023-05-05T10:48:45.739Z,20.8021
2023-05-05T10:50:14.561Z,20.9820
2023-05-05T10:51:43.886Z,21.1061
2023-05-05T10:53:15.198Z,21.0973
2023-05-05T10:54:45.885Z,20.8872
2023-05-05T10:56:16.724Z,21.0101
2023-05-05T10:57:47.904Z,20.7564
2023-05-05T10:59:18.184Z,20.7576
2023-05-05T11:00:47.539Z,21.0979
2023-05-05T11:02:16.865Z,21.4811
2023-05-05T11:03:47.396Z,21.5901
2023-05-05T11:05:18.804Z,21.2440
2023-05-05T11:06:49.156Z,21.3325
2023-05-05T11:08:18.521Z,21.3544
2023-05-05T11:09:48.311Z,21.5719
2023-05-05T11:11:18.559Z,21.5726
2023-05-05T11:12:48.352Z,21.2589
2023-05-05T11:14:17.667Z,21.3943
2023-05-05T11:15:48.817Z,21.6823
2023-05-05T11:17:18.175Z,22.0051
2023-05-05T11:18:47.595Z,22.4292
2023-05-05T11:20:17.020Z,22.5679
2023-05-05T11:21:46.716Z,22.5445
2023-05-05T11:23:16.772Z,22.7470
2023-05-05T11:24:45.241Z,23.5441
2023-05-05T11:26:14.456Z,24.4250
2023-05-05T11:27:43.644Z,23.6442
2023-05-05T11:29:13.884Z,24.3759
2023-05-05T11:30:44.140Z,24.5478
2023-05-05T11:32:13.647Z,24.6705
2023-05-05T11:33:15.605Z,25.1612
2023-05-05T11:34:45.703Z,24.6226
2023-05-05T11:36:15.794Z,24.7622
2023-05-05T11:37:44.900Z,24.7395
2023-05-05T11:39:13.998Z,26.3429
2023-05-05T11:40:43.019Z,26.2453
2023-05-05T11:42:13.071Z,25.2344
2023-05-05T11:43:43.212Z,23.6783
2023-05-05T11:44:44.605Z,23.4616
2023-05-05T11:46:16.236Z,25.0307
2023-05-05T11:47:44.832Z,24.9991
2023-05-05T11:49:13.812Z,25.1209
2023-05-05T11:50:43.349Z,25.5360
2023-05-05T11:52:12.432Z,25.1261
2023-05-05T11:53:41.437Z,25.8282
2023-05-05T11:55:10.496Z,26.3469
2023-05-05T11:56:41.544Z,25.7363
2023-05-05T11:58:10.586Z,25.1421
2023-05-05T11:59:40.626Z,24.7686
2023-05-05T12:01:10.724Z,23.8986
2023-05-05T12:02:40.065Z,23.3833
2023-05-05T12:04:10.104Z,23.5718
2023-05-05T12:05:38.961Z,23.4614
2023-05-05T12:07:09.101Z,24.1379
2023-05-05T12:08:39.224Z,24.2995
2023-05-05T12:10:08.631Z,24.7250
2023-05-05T12:11:37.407Z,24.6104
2023-05-05T12:13:06.563Z,25.1314
2023-05-05T12:14:36.599Z,25.5916
2023-05-05T12:16:06.754Z,24.6650
2023-05-05T12:17:36.713Z,24.8389
2023-05-05T12:19:05.741Z,24.5242
2023-05-05T12:20:35.642Z,24.0124
2023-05-05T12:22:04.683Z,24.7567
2023-05-05T12:23:33.626Z,25.0044
2023-05-05T12:25:03.604Z,25.6563
2023-05-05T12:26:32.588Z,25.6984
2023-05-05T12:28:01.494Z,24.8052
2023-05-05T12:29:31.488Z,25.2093
2023-05-05T12:31:01.629Z,25.1639
2023-05-05T12:32:31.569Z,25.1169
2023-05-05T12:34:01.624Z,25.7711
2023-05-05T12:35:31.795Z,26.4883
2023-05-05T12:37:01.611Z,26.0027
2023-05-05T12:38:31.607Z,25.9477
2023-05-05T12:40:00.496Z,25.2979
2023-05-05T12:41:29.434Z,25.5982
2023-05-05T12:42:59.364Z,26.1448
2023-05-05T12:44:28.821Z,25.2386
2023-05-05T12:45:58.885Z,24.8991
2023-05-05T12:47:29.314Z,25.8011
2023-05-05T12:48:59.754Z,25.8459
2023-05-05T12:50:28.654Z,26.4573
2023-05-05T12:51:57.639Z,26.2347
2023-05-05T12:53:27.485Z,26.1807
2023-05-05T12:54:57.376Z,26.4642
2023-05-05T12:56:26.272Z,26.5084
2023-05-05T12:57:56.184Z,27.1173
2023-05-05T12:59:26.083Z,27.6703
2023-05-05T13:00:56.459Z,28.7744
2023-05-05T13:02:25.262Z,27.6883
2023-05-05T13:03:54.126Z,28.1121
2023-05-05T13:05:23.028Z,28.9488
2023-05-05T13:06:53.512Z,30.2107
2023-05-05T13:08:20.736Z,28.5705
2023-05-05T13:09:50.565Z,28.5987
2023-05-05T13:11:19.376Z,29.7373
2023-05-05T13:12:48.186Z,30.2390
2023-05-05T13:14:17.010Z,30.4636
2023-05-05T13:15:46.846Z,28.7095
2023-05-05T13:17:15.634Z,26.7808
2023-05-05T13:18:45.487Z,25.7483
2023-05-05T13:20:15.373Z,25.1414
2023-05-05T13:21:44.252Z,25.7725
2023-05-05T13:23:13.148Z,25.0525
2023-05-05T13:24:50.605Z,25.3000
2023-05-05T13:26:11.963Z,25.4833
2023-05-05T13:27:40.921Z,25.8109
2023-05-05T13:29:09.860Z,26.1011
2023-05-05T13:30:38.746Z,27.6506
2023-05-05T13:32:07.623Z,26.4878
2023-05-05T13:33:36.480Z,26.8642
2023-05-05T13:35:05.418Z,27.6810
2023-05-05T13:36:35.275Z,28.8784
2023-05-05T13:38:05.219Z,27.8908
2023-05-05T13:39:35.086Z,26.6936
2023-05-05T13:41:05.155Z,26.2414
2023-05-05T13:42:33.978Z,25.7069
2023-05-05T13:44:03.916Z,25.2187
2023-05-05T13:45:33.895Z,24.8291
2023-05-05T13:47:03.915Z,24.1271
2023-05-05T13:48:32.864Z,24.2510
2023-05-05T13:50:01.907Z,24.5943
2023-05-05T13:51:31.852Z,24.8340
2023-05-05T13:53:00.894Z,24.5713
2023-05-05T13:54:29.859Z,24.5785
2023-05-05T13:55:58.967Z,25.0636
2023-05-05T13:57:30.145Z,24.7583
2023-05-05T13:59:00.104Z,24.3547
2023-05-05T14:00:29.197Z,24.5582
2023-05-05T14:01:58.146Z,24.5242
2023-05-05T14:03:27.162Z,24.4527
2023-05-05T14:04:56.997Z,24.1995
2023-05-05T14:06:26.424Z,23.8727
2023-05-05T14:07:56.430Z,23.7126
2023-05-05T14:09:25.597Z,23.5847
2023-05-05T14:10:55.727Z,23.8875
2023-05-05T14:12:25.827Z,24.0148
2023-05-05T14:13:55.995Z,23.8596
2023-05-05T14:15:25.851Z,23.3947
2023-05-05T14:16:55.784Z,23.6119
2023-05-05T14:18:25.503Z,23.9145
2023-05-05T14:19:56.396Z,24.0326
2023-05-05T14:21:25.799Z,23.5775
2023-05-05T14:22:54.980Z,23.4291
2023-05-05T14:24:25.425Z,23.4245
2023-05-05T14:25:54.569Z,23.3425
2023-05-05T14:27:23.833Z,23.2506
2023-05-05T14:28:53.585Z,23.2986
2023-05-05T14:30:22.935Z,23.3810
2023-05-05T14:31:52.357Z,23.2775
2023-05-05T14:33:21.602Z,23.2147
2023-05-05T14:34:50.856Z,23.2054
2023-05-05T14:36:21.104Z,23.2628
2023-05-05T14:37:50.353Z,23.3597
2023-05-05T14:39:19.504Z,23.1960
2023-05-05T14:40:48.688Z,23.1379
2023-05-05T14:42:17.946Z,23.2813
2023-05-05T14:43:47.138Z,23.3494
2023-05-05T14:45:17.417Z,23.2790
2023-05-05T14:46:48.551Z,23.2969
2023-05-05T14:48:16.918Z,23.3014
2023-05-05T14:49:47.209Z,23.0745
2023-05-05T14:51:16.873Z,22.9861
2023-05-05T14:52:46.133Z,22.8517
2023-05-05T14:54:26.935Z,22.8126
2023-05-05T14:55:47.006Z,22.6136
2023-05-05T14:57:18.079Z,22.5854
2023-05-05T14:58:49.471Z,22.5512
2023-05-05T15:00:18.246Z,22.5409
2023-05-05T15:01:47.649Z,22.3691
2023-05-05T15:03:18.686Z,22.2416
2023-05-05T15:04:50.337Z,22.2156
2023-05-05T15:06:19.743Z,22.1278
2023-05-05T15:07:51.355Z,22.0558
2023-05-05T15:09:21.056Z,22.1149
2023-05-05T15:10:52.158Z,22.0798
2023-05-05T15:12:21.993Z,22.0320
2023-05-05T15:13:53.570Z,22.0272
2023-05-05T15:15:23.117Z,21.9569
2023-05-05T15:16:53.130Z,21.9898
2023-05-05T15:18:21.990Z,22.0429
2023-05-05T15:19:53.308Z,22.0131
2023-05-05T15:21:23.334Z,21.8919
2023-05-05T15:22:54.328Z,21.8130
2023-05-05T15:24:25.133Z,21.7339
2023-05-05T15:25:54.959Z,21.5459
2023-05-05T15:27:25.281Z,20.8996
2023-05-05T15:28:54.649Z,20.1943
2023-05-05T15:30:25.541Z,19.5780
2023-05-05T15:31:56.865Z,19.6593
2023-05-05T15:33:29.053Z,19.1910
2023-05-05T15:35:00.570Z,18.5620
2023-05-05T15:36:29.399Z,18.5864
2023-05-05T15:37:59.406Z,18.0813
2023-05-05T15:39:29.667Z,17.3358
2023-05-05T15:40:31.871Z,17.0095
2023-05-05T15:41:34.535Z,16.7305
2023-05-05T15:42:35.726Z,16.6954
2023-05-05T15:44:07.932Z,16.6139
2023-05-05T15:49:17.992Z,16.7045
2023-05-05T15:50:45.976Z,16.8370
2023-05-05T15:52:14.778Z,16.9338
2023-05-05T16:10:55.818Z,18.2275
2023-05-05T16:11:58.930Z,18.3362
2023-05-05T16:13:29.769Z,18.1944
2023-05-05T16:14:59.909Z,18.2857
2023-05-05T16:16:32.297Z,18.3833
2023-05-05T16:18:01.543Z,18.4494
2023-05-05T16:19:32.546Z,18.2733
2023-05-05T16:21:03.126Z,17.9493
2023-05-05T16:22:05.744Z,18.0318
2023-05-05T16:23:35.737Z,18.1205
2023-05-05T16:25:04.953Z,18.0001
2023-05-05T16:26:08.485Z,17.7042
2023-05-05T16:27:37.111Z,17.5329
2023-05-05T16:28:39.526Z,17.5177
2023-05-05T16:30:09.576Z,17.3869
2023-05-05T16:31:38.191Z,17.6102
2023-05-05T16:33:07.137Z,17.6311
2023-05-05T16:34:39.062Z,17.6845
2023-05-05T16:36:08.215Z,17.6234
2023-05-05T16:37:40.375Z,17.5768
2023-05-05T16:39:11.102Z,17.6102
2023-05-05T16:40:39.836Z,17.5405
2023-05-05T16:41:41.513Z,17.3128
2023-05-05T16:43:14.250Z,17.3831
2023-05-05T16:44:46.707Z,17.3523
2023-05-05T16:46:15.635Z,17.2902
2023-05-05T16:47:46.080Z,17.2299
2023-05-05T16:49:15.885Z,17.2163
2023-05-05T16:50:18.755Z,17.2232
2023-05-05T16:51:48.330Z,17.1811
2023-05-05T16:52:49.342Z,17.1653
2023-05-05T16:53:51.663Z,17.0958
2023-05-05T16:55:23.280Z,17.0773
2023-05-05T16:56:56.989Z,17.0711
2023-05-05T16:58:24.185Z,16.9495
2023-05-05T16:59:54.267Z,16.9620
2023-05-05T17:01:25.731Z,16.8615
2023-05-05T17:02:57.057Z,16.8170
2023-05-05T17:04:27.793Z,16.8338
2023-05-05T17:05:58.566Z,16.7910
2023-05-05T17:07:02.276Z,16.8159
2023-05-05T17:08:33.752Z,16.6807
2023-05-05T17:09:35.679Z,16.7160
2023-05-05T17:11:05.376Z,16.7544
2023-05-05T17:12:08.507Z,16.7460
2023-05-05T17:13:08.828Z,16.7531
2023-05-05T17:14:13.193Z,16.6928
2023-05-05T17:27:38.330Z,16.7213
2023-05-05T17:28:38.287Z,16.7746
2023-05-05T17:31:10.408Z,16.8017
2023-05-05T17:41:30.768Z,16.8838
2023-05-05T17:45:07.540Z,16.7902
2023-05-05T17:52:55.416Z,16.7698
2023-05-05T17:57:32.654Z,16.5431
